Columbia Regional Airport
KCOU : now visible

Airfield :











YOU CAN JOIN US ON...

 
LOGIN :

Register | Disclaimer

   EN    FR    IT 

 









Legend :    VFR   Marginal VFR   IFR   Intensive IFR   Very Intensive IFR
Visi :
Ceiling :
>= 8 km
>= 3000ft
5 to 8 km
1000 to 3000 ft
1500m to 5 km
500 to 1000 ft
800 to 1500m
200 to 500 ft
< 800m
< 200 ft
Symbols :   Thunderstorms  Fog  Heavy snow  Heavy precipitations  Wind > 20 kt






- Airport Elevation : 889 ft
- IATA code : COU


KCOU - Columbia Regional

CURRENT METAR :
  • 281554Z 21005KT 10SM BKN010 22/19 A2990 RMK AO2 SLP117 T02220189

EXPIRED METARs :
  • 281515Z 18008KT 10SM BKN010 22/19 A2989 RMK AO2 CIG 008V013 T02170189
  • 281454Z COR 19006KT 10SM BKN008 21/19 A2989 RMK AO2 SLP116 T02110189 50004
  • 281414Z 20005KT 10SM BKN006 21/19 A2990 RMK AO2 T02060189
  • 281354Z 21003KT 10SM SCT004 20/18 A2990 RMK AO2 SLP118 T02000183
  • 281341Z 24004KT 10SM FEW004 19/18 A2990 RMK AO2 T01940183

TAF KCOU
Valid from the 28 at 15:00 until the 29 at 12:00 UTC


281517Z 2815/2912 20009KT P6SM SCT008 BKN015
TEMPO 2815/2816 BKN008
FM281800 28006KT P6SM VCTS BKN050CB
FM282300 33009KT P6SM -SHRA VCTS OVC030CB
FM290100 34008KT P6SM VCTS BKN035CB
FM290700 32006KT P6SM BKN100
KZKC FIR / North America



MET'MAP, your aeronautical weather chart ! - Copyright ORBIFLY December 2007 - Disclaimer

ORBIFLY MET'MAP TEAM :

Programming & Development : Alexandra Zaïnal
Concept & original design : Baudouin d'Aumeries
Assistance for programming : Marc-Olivier Méhu
Technical & hardware support : Manuel Goepfert

Contact : metmap@orbifly.com




SOURCES & CREDITS :

   NOAA       Earth
Advisory